Wetterdaten: Woche 09.01.17 - 15.01.17 (KW2)
Datum Zeit Temp. A. Feuchte A. Luftdruck Regen Wind Richtung Taupunkt Windchill Windben
09.01.2017 00:00 -3,2 C 96 % 1031,9 hPa 0,0 l/m 0,0 km/h (0 Bft) NO -3,7 C -3,2 C 0,1 km/h (0 Bft)
09.01.2017 01:00 -3,2 C 96 % 1031,7 hPa 0,0 l/m 0,0 km/h (0 Bft) NO -3,7 C -3,2 C 0,1 km/h (0 Bft)
09.01.2017 02:00 -3,3 C 96 % 1031,6 hPa 0,0 l/m 0,0 km/h (0 Bft) NO -3,8 C -3,3 C 0,3 km/h (0 Bft)
09.01.2017 03:00 -3,4 C 96 % 1031,4 hPa 0,0 l/m 0,0 km/h (0 Bft) NO -3,9 C -3,4 C 0,1 km/h (0 Bft)
09.01.2017 04:00 -3,4 C 96 % 1031,2 hPa 0,0 l/m 0,1 km/h (0 Bft) NO -3,9 C -3,4 C 0,5 km/h (0 Bft)
09.01.2017 05:00 -3,4 C 96 % 1030,7 hPa 0,0 l/m 0,1 km/h (0 Bft) NO -3,9 C -3,4 C 1,4 km/h (1 Bft)
09.01.2017 06:00 -3,3 C 96 % 1030,3 hPa 0,0 l/m 0,1 km/h (0 Bft) NO -3,9 C -3,3 C 0,8 km/h (0 Bft)
09.01.2017 07:00 -3,3 C 96 % 1030,0 hPa 0,0 l/m 0,1 km/h (0 Bft) NO -3,9 C -3,3 C 0,8 km/h (0 Bft)
09.01.2017 08:00 -3,3 C 95 % 1029,9 hPa 0,0 l/m 0,0 km/h (0 Bft) NO -3,9 C -3,3 C 0,3 km/h (0 Bft)
09.01.2017 09:00 -2,9 C 95 % 1029,8 hPa 0,0 l/m 0,2 km/h (0 Bft) NO -3,6 C -2,9 C 1,1 km/h (0 Bft)
09.01.2017 10:00 -2,0 C 93 % 1029,7 hPa 0,0 l/m 0,2 km/h (0 Bft) NO -2,9 C -2,0 C 1,3 km/h (1 Bft)
09.01.2017 11:00 -0,8 C 80 % 1029,0 hPa 0,3 l/m 1,3 km/h (1 Bft) O -3,8 C -0,8 C 3,2 km/h (1 Bft)
09.01.2017 12:00 -0,6 C 76 % 1028,4 hPa 0,0 l/m 2,0 km/h (1 Bft) O -4,2 C -0,6 C 4,1 km/h (1 Bft)
09.01.2017 13:00 -0,5 C 76 % 1027,4 hPa 0,0 l/m 1,1 km/h (1 Bft) O -4,1 C -0,5 C 3,7 km/h (1 Bft)
09.01.2017 14:00 -0,8 C 78 % 1026,6 hPa 0,0 l/m 1,6 km/h (1 Bft) O-NO -4,1 C -0,8 C 4,3 km/h (1 Bft)
09.01.2017 15:00 -1,1 C 80 % 1026,1 hPa 0,0 l/m 1,2 km/h (1 Bft) O -4,1 C -1,1 C 4,0 km/h (1 Bft)
09.01.2017 16:00 -1,5 C 84 % 1025,7 hPa 0,0 l/m 0,7 km/h (0 Bft) O -4,0 C -1,5 C 2,8 km/h (1 Bft)
09.01.2017 17:00 -2,0 C 84 % 1025,3 hPa 0,0 l/m 0,4 km/h (0 Bft) O-SO -4,3 C -2,0 C 1,9 km/h (1 Bft)
09.01.2017 18:00 -2,2 C 84 % 1024,9 hPa 0,0 l/m 0,4 km/h (0 Bft) SO -4,4 C -2,2 C 2,2 km/h (1 Bft)
09.01.2017 19:00 -2,4 C 85 % 1024,1 hPa 0,0 l/m 1,3 km/h (1 Bft) O -4,6 C -2,4 C 3,7 km/h (1 Bft)
09.01.2017 20:00 -2,7 C 85 % 1023,4 hPa 0,0 l/m 2,0 km/h (1 Bft) O-NO -4,8 C -2,7 C 4,8 km/h (1 Bft)
09.01.2017 21:00 -2,7 C 86 % 1022,4 hPa 0,0 l/m 2,5 km/h (1 Bft) O-NO -4,7 C -2,7 C 5,5 km/h (2 Bft)
09.01.2017 22:00 -2,9 C 84 % 1021,1 hPa 0,0 l/m 2,4 km/h (1 Bft) O -5,2 C -2,9 C 6,4 km/h (2 Bft)
09.01.2017 23:00 -3,3 C 84 % 1019,8 hPa 0,0 l/m 2,8 km/h (1 Bft) O-NO -5,5 C -3,3 C 7,0 km/h (2 Bft)
10.01.2017 00:00 -4,6 C 87 % 1019,2 hPa 0,0 l/m 0,1 km/h (0 Bft) O-SO -6,4 C -4,6 C 1,1 km/h (1 Bft)
10.01.2017 01:00 -6,6 C 92 % 1018,4 hPa 0,0 l/m 0,1 km/h (0 Bft) O-SO -7,6 C -6,6 C 0,9 km/h (0 Bft)
10.01.2017 02:00 -5,5 C 92 % 1017,4 hPa 0,0 l/m 1,5 km/h (1 Bft) O -6,6 C -5,5 C 4,5 km/h (1 Bft)
10.01.2017 03:00 -4,5 C 89 % 1016,4 hPa 0,0 l/m 1,5 km/h (1 Bft) O -6,1 C -4,5 C 4,7 km/h (1 Bft)
10.01.2017 04:00 -4,2 C 89 % 1015,4 hPa 0,0 l/m 1,5 km/h (1 Bft) N-NO -5,7 C -4,2 C 3,9 km/h (1 Bft)
10.01.2017 05:00 -3,6 C 89 % 1014,0 hPa 0,0 l/m 2,7 km/h (1 Bft) O-NO -5,1 C -3,6 C 6,5 km/h (2 Bft)
10.01.2017 06:00 -3,4 C 90 % 1013,2 hPa 0,0 l/m 3,2 km/h (1 Bft) O-NO -4,8 C -3,4 C 7,4 km/h (2 Bft)
10.01.2017 07:00 -3,3 C 92 % 1012,3 hPa 0,0 l/m 2,4 km/h (1 Bft) O -4,4 C -3,3 C 6,7 km/h (2 Bft)
10.01.2017 08:00 -3,1 C 93 % 1011,7 hPa 0,0 l/m 3,4 km/h (1 Bft) O -4,1 C -3,1 C 8,8 km/h (2 Bft)
10.01.2017 09:00 -2,9 C 93 % 1011,2 hPa 0,0 l/m 4,6 km/h (1 Bft) O-NO -3,9 C -2,9 C 12,2 km/h (2 Bft)
10.01.2017 10:00 -2,4 C 92 % 1010,7 hPa 0,0 l/m 3,8 km/h (1 Bft) O-NO -3,5 C -2,4 C 9,2 km/h (2 Bft)
10.01.2017 11:00 -1,8 C 92 % 1010,0 hPa 0,0 l/m 1,6 km/h (1 Bft) O-NO -2,9 C -1,8 C 4,4 km/h (1 Bft)
10.01.2017 12:00 -1,3 C 93 % 1009,8 hPa 0,0 l/m 0,5 km/h (0 Bft) O-NO -2,3 C -1,3 C 2,0 km/h (1 Bft)
10.01.2017 13:00 -1,0 C 94 % 1009,7 hPa 0,0 l/m 0,3 km/h (0 Bft) W -1,9 C -1,0 C 1,6 km/h (1 Bft)
10.01.2017 14:00 -0,8 C 94 % 1009,7 hPa 0,0 l/m 0,2 km/h (0 Bft) W -1,7 C -0,8 C 1,5 km/h (1 Bft)
10.01.2017 15:00 -0,5 C 93 % 1010,1 hPa 0,0 l/m 0,3 km/h (0 Bft) N-NO -1,5 C -0,5 C 2,0 km/h (1 Bft)
10.01.2017 16:00 -0,7 C 94 % 1010,8 hPa 0,0 l/m 0,0 km/h (0 Bft) O -1,6 C -0,7 C 0,3 km/h (0 Bft)
10.01.2017 17:00 -1,1 C 95 % 1011,8 hPa 0,0 l/m 0,0 km/h (0 Bft) O -1,8 C -1,1 C 0,1 km/h (0 Bft)
10.01.2017 18:00 -1,2 C 95 % 1012,3 hPa 0,0 l/m 0,0 km/h (0 Bft) O -1,8 C -1,2 C 0,0 km/h (0 Bft)
10.01.2017 19:00 -1,1 C 96 % 1013,2 hPa 0,0 l/m 0,0 km/h (0 Bft) O -1,7 C -1,1 C 0,4 km/h (0 Bft)
10.01.2017 20:00 -1,2 C 96 % 1013,8 hPa 0,0 l/m 0,1 km/h (0 Bft) O -1,8 C -1,2 C 0,5 km/h (0 Bft)
10.01.2017 21:00 -1,2 C 96 % 1014,3 hPa 0,0 l/m 0,3 km/h (0 Bft) O -1,8 C -1,2 C 1,1 km/h (0 Bft)
10.01.2017 22:00 -1,3 C 96 % 1014,6 hPa 0,0 l/m 0,7 km/h (0 Bft) O -1,9 C -1,3 C 3,2 km/h (1 Bft)
10.01.2017 23:00 -1,4 C 95 % 1014,8 hPa 0,0 l/m 1,0 km/h (0 Bft) O-NO -2,0 C -1,4 C 3,5 km/h (1 Bft)
11.01.2017 00:00 -1,3 C 95 % 1015,4 hPa 0,0 l/m 0,3 km/h (0 Bft) O-NO -2,0 C -1,3 C 1,8 km/h (1 Bft)
11.01.2017 01:00 -1,3 C 95 % 1015,7 hPa 0,0 l/m 0,2 km/h (0 Bft) O -2,0 C -1,3 C 1,9 km/h (1 Bft)
11.01.2017 02:00 -1,3 C 95 % 1016,2 hPa 0,0 l/m 0,3 km/h (0 Bft) O-NO -2,0 C -1,3 C 1,9 km/h (1 Bft)
11.01.2017 03:00 -1,2 C 96 % 1016,4 hPa 0,0 l/m 0,3 km/h (0 Bft) O -1,8 C -1,2 C 2,3 km/h (1 Bft)
11.01.2017 04:00 -1,1 C 96 % 1016,5 hPa 0,0 l/m 0,8 km/h (0 Bft) O-NO -1,7 C -1,1 C 3,5 km/h (1 Bft)
11.01.2017 05:00 -1,0 C 96 % 1016,5 hPa 0,0 l/m 0,2 km/h (0 Bft) N -1,6 C -1,0 C 0,8 km/h (0 Bft)
11.01.2017 06:00 -1,1 C 96 % 1016,5 hPa 0,0 l/m 0,4 km/h (0 Bft) O -1,6 C -1,1 C 1,9 km/h (1 Bft)
11.01.2017 07:00 -1,3 C 95 % 1016,6 hPa 0,0 l/m 0,7 km/h (0 Bft) O -2,1 C -1,3 C 2,4 km/h (1 Bft)
11.01.2017 08:00 -2,5 C 95 % 1016,5 hPa 0,0 l/m 0,8 km/h (0 Bft) O -3,2 C -2,5 C 2,7 km/h (1 Bft)
11.01.2017 09:00 -1,0 C 92 % 1016,0 hPa 0,0 l/m 3,5 km/h (1 Bft) NO -2,1 C -1,0 C 8,6 km/h (2 Bft)
11.01.2017 10:00 -0,2 C 89 % 1016,3 hPa 0,0 l/m 4,5 km/h (1 Bft) NO -1,7 C -0,2 C 12,8 km/h (3 Bft)
11.01.2017 11:00 0,4 C 90 % 1016,0 hPa 0,0 l/m 5,9 km/h (2 Bft) N-NO -1,1 C -0,1 C 13,5 km/h (3 Bft)
11.01.2017 12:00 0,9 C 89 % 1015,0 hPa 0,3 l/m 5,7 km/h (2 Bft) NO -0,7 C 0,4 C 12,0 km/h (2 Bft)
11.01.2017 13:00 1,0 C 89 % 1012,9 hPa 0,0 l/m 7,6 km/h (2 Bft) NO -0,6 C -0,2 C 17,4 km/h (3 Bft)
11.01.2017 14:00 1,4 C 89 % 1011,5 hPa 0,0 l/m 10,5 km/h (2 Bft) O-NO -0,2 C -2,3 C 22,8 km/h (4 Bft)
11.01.2017 15:00 1,4 C 91 % 1010,5 hPa 0,0 l/m 11,5 km/h (2 Bft) O-NO 0,1 C -3,0 C 27,5 km/h (5 Bft)
11.01.2017 16:00 1,5 C 93 % 1010,6 hPa 0,0 l/m 7,2 km/h (2 Bft) O-NO 0,5 C 0,5 C 18,5 km/h (3 Bft)
11.01.2017 17:00 1,3 C 95 % 1010,3 hPa 0,0 l/m 8,2 km/h (2 Bft) O-NO 0,6 C -0,4 C 18,6 km/h (3 Bft)
11.01.2017 18:00 1,6 C 95 % 1010,6 hPa 0,0 l/m 9,1 km/h (2 Bft) NO 0,9 C -0,9 C 19,0 km/h (3 Bft)
11.01.2017 19:00 1,6 C 95 % 1011,5 hPa 0,0 l/m 6,7 km/h (2 Bft) NO 0,9 C 0,7 C 17,8 km/h (3 Bft)
11.01.2017 20:00 1,8 C 95 % 1012,4 hPa 0,0 l/m 3,8 km/h (1 Bft) O 1,1 C 1,7 C 10,7 km/h (2 Bft)
11.01.2017 21:00 2,1 C 96 % 1012,8 hPa 0,0 l/m 4,2 km/h (1 Bft) O-NO 1,5 C 2,1 C 13,3 km/h (3 Bft)
11.01.2017 22:00 2,0 C 95 % 1013,8 hPa 0,0 l/m 1,9 km/h (1 Bft) S-SO 1,4 C 2,0 C 6,4 km/h (2 Bft)
11.01.2017 23:00 1,7 C 95 % 1014,6 hPa 0,0 l/m 3,0 km/h (1 Bft) O-NO 1,0 C 1,7 C 9,8 km/h (2 Bft)
12.01.2017 00:00 2,1 C 95 % 1015,2 hPa 0,3 l/m 3,7 km/h (1 Bft) O-NO 1,3 C 2,1 C 9,4 km/h (2 Bft)
12.01.2017 01:00 1,9 C 95 % 1015,7 hPa 0,5 l/m 3,3 km/h (1 Bft) O-NO 1,2 C 1,9 C 8,9 km/h (2 Bft)
12.01.2017 02:00 2,0 C 95 % 1016,1 hPa 1,0 l/m 3,6 km/h (1 Bft) O 1,2 C 2,0 C 10,7 km/h (2 Bft)
12.01.2017 03:00 1,7 C 95 % 1016,7 hPa 1,3 l/m 1,8 km/h (1 Bft) O-NO 0,9 C 1,7 C 6,1 km/h (2 Bft)
12.01.2017 04:00 1,4 C 96 % 1016,3 hPa 0,5 l/m 2,3 km/h (1 Bft) O-NO 0,8 C 1,4 C 8,3 km/h (2 Bft)
12.01.2017 05:00 2,2 C 95 % 1015,8 hPa 0,3 l/m 3,8 km/h (1 Bft) O-NO 1,5 C 2,2 C 8,4 km/h (2 Bft)
12.01.2017 06:00 2,3 C 95 % 1016,0 hPa 0,8 l/m 3,9 km/h (1 Bft) O 1,6 C 2,3 C 9,9 km/h (2 Bft)
12.01.2017 07:00 2,3 C 95 % 1016,5 hPa 1,0 l/m 3,7 km/h (1 Bft) O-NO 1,6 C 2,3 C 11,5 km/h (2 Bft)
12.01.2017 08:00 2,3 C 95 % 1016,6 hPa 1,0 l/m 4,1 km/h (1 Bft) O 1,6 C 2,3 C 11,8 km/h (2 Bft)
12.01.2017 09:00 2,3 C 95 % 1016,7 hPa 0,5 l/m 4,7 km/h (1 Bft) O 1,6 C 2,2 C 13,5 km/h (3 Bft)
12.01.2017 10:00 2,2 C 95 % 1016,6 hPa 1,0 l/m 4,0 km/h (1 Bft) O-NO 1,5 C 2,2 C 12,6 km/h (3 Bft)
12.01.2017 11:00 2,3 C 94 % 1016,2 hPa 0,8 l/m 4,9 km/h (1 Bft) O-NO 1,5 C 2,1 C 12,4 km/h (2 Bft)
12.01.2017 12:00 2,6 C 94 % 1015,1 hPa 0,8 l/m 4,7 km/h (1 Bft) O-NO 1,7 C 2,4 C 8,3 km/h (2 Bft)
12.01.2017 13:00 2,5 C 94 % 1014,0 hPa 0,5 l/m 4,1 km/h (1 Bft) O-NO 1,6 C 2,5 C 7,4 km/h (2 Bft)
12.01.2017 14:00 2,4 C 94 % 1012,7 hPa 0,0 l/m 2,9 km/h (1 Bft) O-NO 1,5 C 2,4 C 5,4 km/h (2 Bft)
12.01.2017 15:00 2,2 C 95 % 1011,3 hPa 0,0 l/m 1,8 km/h (1 Bft) O 1,5 C 2,2 C 3,7 km/h (1 Bft)
12.01.2017 16:00 1,9 C 95 % 1009,5 hPa 0,3 l/m 0,2 km/h (0 Bft) N 1,2 C 1,9 C 0,7 km/h (0 Bft)
12.01.2017 17:00 1,6 C 96 % 1007,6 hPa 0,5 l/m 0,7 km/h (0 Bft) NO 1,0 C 1,6 C 1,9 km/h (1 Bft)
12.01.2017 18:00 1,7 C 96 % 1006,0 hPa 0,3 l/m 1,5 km/h (1 Bft) NO 1,2 C 1,7 C 3,6 km/h (1 Bft)
12.01.2017 19:00 1,9 C 95 % 1003,5 hPa 1,0 l/m 3,6 km/h (1 Bft) O-NO 1,3 C 1,9 C 9,0 km/h (2 Bft)
12.01.2017 20:00 1,7 C 95 % 1001,2 hPa 1,0 l/m 4,8 km/h (1 Bft) O-NO 1,0 C 1,7 C 12,4 km/h (2 Bft)
12.01.2017 21:00 1,6 C 96 % 999,4 hPa 1,3 l/m 3,0 km/h (1 Bft) NO 1,1 C 1,6 C 7,1 km/h (2 Bft)
12.01.2017 22:00 1,7 C 96 % 997,4 hPa 0,8 l/m 3,3 km/h (1 Bft) N-NO 1,2 C 1,7 C 7,9 km/h (2 Bft)
12.01.2017 23:00 4,2 C 95 % 996,0 hPa 0,8 l/m 9,5 km/h (2 Bft) O-NO 3,4 C 1,5 C 21,7 km/h (4 Bft)
13.01.2017 00:00 5,2 C 89 % 995,4 hPa 0,3 l/m 13,6 km/h (3 Bft) O-NO 3,4 C 0,2 C 29,0 km/h (5 Bft)
13.01.2017 01:00 3,6 C 87 % 996,2 hPa 1,8 l/m 11,9 km/h (2 Bft) O 1,6 C -0,8 C 31,4 km/h (5 Bft)
13.01.2017 02:00 2,3 C 88 % 997,3 hPa 0,5 l/m 10,5 km/h (2 Bft) O-NO 0,5 C -1,1 C 26,3 km/h (4 Bft)
13.01.2017 03:00 1,7 C 87 % 998,6 hPa 0,3 l/m 11,8 km/h (2 Bft) O-NO -0,2 C -2,7 C 27,8 km/h (5 Bft)
13.01.2017 04:00 1,0 C 88 % 999,8 hPa 0,0 l/m 11,2 km/h (2 Bft) O-NO -0,8 C -3,2 C 28,0 km/h (5 Bft)
13.01.2017 05:00 0,4 C 87 % 1001,1 hPa 0,0 l/m 9,7 km/h (2 Bft) NO -1,6 C -2,7 C 21,5 km/h (4 Bft)
13.01.2017 06:00 0,2 C 84 % 1001,7 hPa 0,0 l/m 11,0 km/h (2 Bft) O -2,1 C -3,9 C 24,6 km/h (4 Bft)
13.01.2017 07:00 -0,2 C 82 % 1003,0 hPa 0,0 l/m 9,8 km/h (2 Bft) NO -2,9 C -3,4 C 25,5 km/h (4 Bft)
13.01.2017 08:00 -0,9 C 84 % 1003,3 hPa 0,0 l/m 11,4 km/h (2 Bft) O -3,3 C -5,5 C 28,4 km/h (5 Bft)
13.01.2017 09:00 -1,0 C 80 % 1004,0 hPa 0,0 l/m 9,6 km/h (2 Bft) O -4,0 C -4,2 C 23,9 km/h (4 Bft)
13.01.2017 10:00 -0,8 C 78 % 1004,9 hPa 0,0 l/m 6,0 km/h (2 Bft) O-NO -4,1 C -1,2 C 15,7 km/h (3 Bft)
13.01.2017 11:00 -0,4 C 76 % 1004,8 hPa 0,0 l/m 4,9 km/h (1 Bft) O -4,0 C -0,6 C 12,9 km/h (3 Bft)
13.01.2017 12:00 -0,3 C 75 % 1004,8 hPa 0,0 l/m 5,3 km/h (1 Bft) O -4,1 C -0,7 C 12,5 km/h (2 Bft)
13.01.2017 13:00 -0,8 C 83 % 1005,0 hPa 0,0 l/m 5,9 km/h (2 Bft) O -3,4 C -1,1 C 16,4 km/h (3 Bft)
13.01.2017 14:00 -1,3 C 88 % 1005,6 hPa 0,0 l/m 4,9 km/h (1 Bft) O-NO -3,1 C -1,3 C 13,2 km/h (3 Bft)
13.01.2017 15:00 -1,2 C 86 % 1006,2 hPa 0,0 l/m 4,6 km/h (1 Bft) O-NO -3,3 C -1,2 C 12,8 km/h (3 Bft)
13.01.2017 16:00 -1,4 C 87 % 1006,8 hPa 0,0 l/m 3,1 km/h (1 Bft) O -3,4 C -1,4 C 9,1 km/h (2 Bft)
13.01.2017 17:00 -1,8 C 91 % 1007,5 hPa 0,0 l/m 1,6 km/h (1 Bft) O -3,1 C -1,8 C 3,7 km/h (1 Bft)
13.01.2017 18:00 -2,0 C 92 % 1007,7 hPa 0,0 l/m 2,6 km/h (1 Bft) O-NO -3,2 C -2,0 C 5,7 km/h (2 Bft)
13.01.2017 19:00 -2,0 C 89 % 1007,7 hPa 0,0 l/m 3,3 km/h (1 Bft) O -3,5 C -2,0 C 9,0 km/h (2 Bft)
13.01.2017 20:00 -2,3 C 89 % 1007,7 hPa 0,0 l/m 4,7 km/h (1 Bft) O-NO -3,9 C -2,3 C 11,7 km/h (2 Bft)
13.01.2017 21:00 -2,2 C 91 % 1007,6 hPa 0,0 l/m 4,0 km/h (1 Bft) NO -3,6 C -2,3 C 10,6 km/h (2 Bft)
13.01.2017 22:00 -2,4 C 92 % 1007,2 hPa 0,0 l/m 5,3 km/h (1 Bft) NO -3,5 C -2,5 C 12,1 km/h (2 Bft)
13.01.2017 23:00 -2,6 C 94 % 1007,0 hPa 0,0 l/m 5,1 km/h (1 Bft) O-NO -3,5 C -2,6 C 12,4 km/h (2 Bft)
14.01.2017 00:00 -2,4 C 94 % 1006,8 hPa 0,0 l/m 4,5 km/h (1 Bft) NO -3,1 C -2,4 C 9,2 km/h (2 Bft)
14.01.2017 01:00 -2,0 C 96 % 1007,2 hPa 0,0 l/m 4,4 km/h (1 Bft) O -2,7 C -2,0 C 12,9 km/h (3 Bft)
14.01.2017 02:00 -1,3 C 96 % 1008,2 hPa 0,0 l/m 3,8 km/h (1 Bft) O -1,9 C -1,3 C 10,6 km/h (2 Bft)
14.01.2017 03:00 -0,9 C 96 % 1008,9 hPa 0,0 l/m 3,3 km/h (1 Bft) O -1,5 C -0,9 C 9,5 km/h (2 Bft)
14.01.2017 04:00 -0,8 C 95 % 1009,4 hPa 0,0 l/m 3,3 km/h (1 Bft) O-NO -1,5 C -0,8 C 9,6 km/h (2 Bft)
14.01.2017 05:00 -0,8 C 94 % 1009,9 hPa 0,0 l/m 3,7 km/h (1 Bft) O-NO -1,6 C -0,8 C 9,3 km/h (2 Bft)
14.01.2017 06:00 -1,0 C 94 % 1010,6 hPa 0,0 l/m 3,9 km/h (1 Bft) O-NO -1,9 C -1,1 C 8,2 km/h (2 Bft)
14.01.2017 07:00 -1,2 C 95 % 1011,3 hPa 0,0 l/m 3,7 km/h (1 Bft) O -2,0 C -1,3 C 7,4 km/h (2 Bft)
14.01.2017 08:00 -1,3 C 96 % 1012,2 hPa 0,0 l/m 3,0 km/h (1 Bft) O-NO -1,9 C -1,3 C 5,8 km/h (2 Bft)
14.01.2017 09:00 -1,2 C 95 % 1013,1 hPa 0,0 l/m 3,0 km/h (1 Bft) O -1,9 C -1,2 C 5,5 km/h (2 Bft)
14.01.2017 10:00 -1,2 C 94 % 1013,9 hPa 0,0 l/m 2,7 km/h (1 Bft) O -2,0 C -1,2 C 5,4 km/h (1 Bft)
14.01.2017 11:00 -1,2 C 93 % 1014,7 hPa 0,0 l/m 3,2 km/h (1 Bft) O -2,2 C -1,2 C 6,7 km/h (2 Bft)
14.01.2017 12:00 -1,2 C 93 % 1015,0 hPa 0,0 l/m 3,8 km/h (1 Bft) O-NO -2,3 C -1,4 C 8,1 km/h (2 Bft)
14.01.2017 13:00 -0,8 C 90 % 1015,0 hPa 0,0 l/m 4,4 km/h (1 Bft) O -2,3 C -0,9 C 13,0 km/h (3 Bft)
14.01.2017 14:00 -1,1 C 91 % 1015,4 hPa 0,0 l/m 4,4 km/h (1 Bft) NO -2,4 C -1,1 C 11,7 km/h (2 Bft)
14.01.2017 15:00 -1,4 C 90 % 1016,0 hPa 0,0 l/m 3,6 km/h (1 Bft) O-NO -2,8 C -1,4 C 10,3 km/h (2 Bft)
14.01.2017 16:00 -1,9 C 91 % 1016,5 hPa 0,0 l/m 3,1 km/h (1 Bft) NO -3,1 C -1,9 C 9,4 km/h (2 Bft)
14.01.2017 17:00 -2,4 C 93 % 1016,7 hPa 0,0 l/m 5,3 km/h (1 Bft) O-NO -3,4 C -2,8 C 12,6 km/h (3 Bft)
14.01.2017 18:00 -2,3 C 92 % 1017,0 hPa 0,0 l/m 6,8 km/h (2 Bft) O-NO -3,4 C -3,2 C 16,1 km/h (3 Bft)
14.01.2017 19:00 -2,6 C 91 % 1017,5 hPa 0,0 l/m 4,3 km/h (1 Bft) O-NO -3,9 C -2,6 C 10,9 km/h (2 Bft)
14.01.2017 20:00 -2,9 C 91 % 1017,5 hPa 0,0 l/m 5,4 km/h (2 Bft) O-NO -4,2 C -3,4 C 13,4 km/h (3 Bft)
14.01.2017 21:00 -3,2 C 93 % 1017,5 hPa 0,0 l/m 4,9 km/h (1 Bft) O-NO -4,2 C -3,2 C 12,3 km/h (2 Bft)
14.01.2017 22:00 -3,3 C 94 % 1017,5 hPa 0,0 l/m 5,3 km/h (1 Bft) O-NO -4,1 C -3,5 C 13,4 km/h (3 Bft)
14.01.2017 23:00 -3,4 C 94 % 1017,8 hPa 0,0 l/m 3,8 km/h (1 Bft) O-NO -4,2 C -3,4 C 10,2 km/h (2 Bft)
15.01.2017 00:00 -3,3 C 94 % 1018,2 hPa 0,0 l/m 2,9 km/h (1 Bft) O -4,2 C -3,3 C 6,3 km/h (2 Bft)
15.01.2017 01:00 -3,3 C 94 % 1018,4 hPa 0,0 l/m 2,4 km/h (1 Bft) O -4,2 C -3,3 C 5,6 km/h (2 Bft)
15.01.2017 02:00 -3,3 C 94 % 1018,5 hPa 0,0 l/m 3,0 km/h (1 Bft) O-NO -4,2 C -3,3 C 7,8 km/h (2 Bft)
15.01.2017 03:00 -3,1 C 94 % 1018,9 hPa 0,0 l/m 3,4 km/h (1 Bft) O-NO -3,9 C -3,1 C 8,4 km/h (2 Bft)
15.01.2017 04:00 -3,1 C 95 % 1019,0 hPa 0,0 l/m 1,9 km/h (1 Bft) O -3,9 C -3,1 C 5,1 km/h (1 Bft)
15.01.2017 05:00 -3,0 C 94 % 1019,2 hPa 0,0 l/m 2,4 km/h (1 Bft) O-NO -3,8 C -3,0 C 4,7 km/h (1 Bft)
15.01.2017 06:00 -3,0 C 94 % 1019,5 hPa 0,0 l/m 2,9 km/h (1 Bft) O-NO -3,8 C -3,0 C 6,4 km/h (2 Bft)
15.01.2017 07:00 -3,0 C 94 % 1020,1 hPa 0,0 l/m 1,7 km/h (1 Bft) O -3,8 C -3,0 C 4,8 km/h (1 Bft)
15.01.2017 08:00 -3,0 C 95 % 1020,8 hPa 0,0 l/m 1,6 km/h (1 Bft) O-NO -3,7 C -3,0 C 4,5 km/h (1 Bft)
15.01.2017 09:00 -2,5 C 94 % 1021,2 hPa 0,0 l/m 2,2 km/h (1 Bft) O-NO -3,4 C -2,5 C 5,2 km/h (1 Bft)
15.01.2017 10:00 -2,3 C 93 % 1021,7 hPa 0,0 l/m 2,5 km/h (1 Bft) O -3,2 C -2,3 C 6,5 km/h (2 Bft)
15.01.2017 11:00 -1,6 C 92 % 1021,9 hPa 0,0 l/m 2,7 km/h (1 Bft) O-NO -2,7 C -1,6 C 6,2 km/h (2 Bft)
15.01.2017 12:00 -1,4 C 91 % 1021,8 hPa 0,0 l/m 2,0 km/h (1 Bft) NO -2,6 C -1,4 C 4,7 km/h (1 Bft)
15.01.2017 13:00 -1,7 C 87 % 1021,9 hPa 0,0 l/m 2,9 km/h (1 Bft) O -3,5 C -1,7 C 7,8 km/h (2 Bft)
15.01.2017 14:00 -1,8 C 89 % 1021,9 hPa 0,3 l/m 2,4 km/h (1 Bft) O -3,4 C -1,8 C 6,8 km/h (2 Bft)
15.01.2017 15:00 -1,9 C 88 % 1022,2 hPa 0,0 l/m 1,2 km/h (1 Bft) O -3,6 C -1,9 C 4,4 km/h (1 Bft)
15.01.2017 16:00 -3,1 C 90 % 1022,5 hPa 0,0 l/m 0,1 km/h (0 Bft) O -4,6 C -3,1 C 0,8 km/h (0 Bft)
15.01.2017 17:00 -4,2 C 93 % 1022,7 hPa 0,0 l/m 0,0 km/h (0 Bft) O -5,2 C -4,2 C 0,3 km/h (0 Bft)
15.01.2017 18:00 -4,5 C 94 % 1022,8 hPa 0,0 l/m 0,2 km/h (0 Bft) O -5,3 C -4,5 C 1,4 km/h (1 Bft)
15.01.2017 19:00 -5,1 C 94 % 1022,8 hPa 0,0 l/m 0,7 km/h (0 Bft) O-NO -5,9 C -5,1 C 2,3 km/h (1 Bft)
15.01.2017 20:00 -4,3 C 94 % 1022,8 hPa 0,0 l/m 1,6 km/h (1 Bft) O-NO -5,1 C -4,3 C 4,3 km/h (1 Bft)
15.01.2017 21:00 -4,4 C 94 % 1022,9 hPa 0,0 l/m 0,3 km/h (0 Bft) SO -5,2 C -4,4 C 1,3 km/h (1 Bft)
15.01.2017 22:00 -5,3 C 95 % 1022,8 hPa 0,0 l/m 0,1 km/h (0 Bft) SO -6,0 C -5,3 C 0,9 km/h (0 Bft)
15.01.2017 23:00 -5,5 C 95 % 1022,7 hPa 0,0 l/m 0,1 km/h (0 Bft) SO -6,1 C -5,5 C 0,9 km/h (0 Bft)
Min-Datum _ 10.01.17 13.01.17 13.01.17 - 15.01.17 - 10.01.17 13.01.17 15.01.17
_ Min-Zeit 01:25 12:13 00:30 - 23:00 - 01:15 08:31 23:00
Minimum _ -6,7 C 73 % 994,8 hPa - 0,0 km/h (0 Bft) - -7,8 C -8,3 C 0,0 km/h (0 Bft)
Max-Datum _ 13.01.17 12.01.17 09.01.17 13.01.17 13.01.17 - 13.01.17 13.01.17 13.01.17
_ Max-Zeit 00:05 23:05 00:00 01:35 00:12 - 00:05 00:11 00:20
Maximum _ 5,3 C 97 % 1032,0 hPa 1,8 l/m 22,5 km/h
O-NO (4 Bft)
- 4,3 C 3,8 C 51,5 km/h
O (7 Bft)
Durchschnitt _ -1,1 C 92 % 1014,9 hPa #19,6 l/m 3,2 km/h (1 Bft) O -2,3 C -1,5 C 8,2 km/h (2 Bft)